createdAt,value
2017-03-22T00:00:32.812Z,0
2017-03-22T00:01:32.288Z,0
2017-03-22T00:02:32.922Z,0
2017-03-22T00:03:32.337Z,0
2017-03-22T00:04:32.992Z,0
2017-03-22T00:05:32.641Z,0
2017-03-22T00:06:32.726Z,0
2017-03-22T00:07:32.443Z,0
2017-03-22T00:08:32.475Z,0
2017-03-22T00:09:32.807Z,0
2017-03-22T00:10:33.101Z,0
2017-03-22T00:11:33.164Z,0
2017-03-22T00:12:32.880Z,0
2017-03-22T00:13:32.915Z,0
2017-03-22T00:14:33.256Z,0
2017-03-22T00:15:33.252Z,0
2017-03-22T00:16:33.296Z,0
2017-03-22T00:17:32.729Z,0
2017-03-22T00:18:32.738Z,0
2017-03-22T00:19:33.083Z,0
2017-03-22T00:20:33.672Z,0
2017-03-22T00:21:33.440Z,0
2017-03-22T00:22:32.845Z,0
2017-03-22T00:23:32.878Z,0
2017-03-22T00:24:32.598Z,0
2017-03-22T00:25:33.488Z,0
2017-03-22T00:26:33.579Z,0
2017-03-22T00:27:33.291Z,0
2017-03-22T00:28:33.058Z,0
2017-03-22T00:29:33.030Z,0
2017-03-22T00:30:33.323Z,0
2017-03-22T00:31:33.712Z,0
2017-03-22T00:32:33.437Z,0
2017-03-22T00:33:33.150Z,0
2017-03-22T00:34:33.169Z,0
2017-03-22T00:35:33.755Z,0
2017-03-22T00:36:32.911Z,0
2017-03-22T00:37:32.944Z,0
2017-03-22T00:38:33.905Z,0
2017-03-22T00:39:33.315Z,0
2017-03-22T00:40:33.895Z,0
2017-03-22T00:41:33.684Z,0
2017-03-22T00:42:33.087Z,0
2017-03-22T00:43:33.409Z,0
2017-03-22T00:44:33.468Z,0
2017-03-22T00:45:34.042Z,0
2017-03-22T00:46:33.803Z,0
2017-03-22T00:47:33.536Z,0
2017-03-22T00:48:33.556Z,0
2017-03-22T00:49:33.581Z,0
2017-03-22T00:50:34.173Z,0
2017-03-22T00:51:33.944Z,0
2017-03-22T00:52:33.963Z,0
2017-03-22T00:53:34.317Z,0
2017-03-22T00:54:34.044Z,0
2017-03-22T00:55:33.997Z,0
2017-03-22T00:56:33.762Z,0
2017-03-22T00:57:34.416Z,0
2017-03-22T00:58:33.524Z,0
2017-03-22T00:59:33.849Z,0
2017-03-22T01:00:34.132Z,0
2017-03-22T01:01:34.518Z,0
2017-03-22T01:02:34.241Z,0
2017-03-22T01:03:34.616Z,0
2017-03-22T01:04:34.616Z,0
2017-03-22T01:05:34.256Z,0
2017-03-22T01:06:34.666Z,0
2017-03-22T01:07:35.008Z,0
2017-03-22T01:08:34.767Z,0
2017-03-22T01:09:34.132Z,0
2017-03-22T01:10:34.084Z,0
2017-03-22T01:11:34.489Z,0
2017-03-22T01:12:33.898Z,0
2017-03-22T01:13:34.227Z,0
2017-03-22T01:14:34.266Z,0
2017-03-22T01:15:34.851Z,0
2017-03-22T01:16:33.993Z,0
2017-03-22T01:17:34.974Z,0
2017-03-22T01:18:35.019Z,0
2017-03-22T01:19:35.019Z,0
2017-03-22T01:20:35.293Z,0
2017-03-22T01:21:35.062Z,0
2017-03-22T01:22:34.471Z,0
2017-03-22T01:23:34.806Z,0
2017-03-22T01:24:34.839Z,0
2017-03-22T01:25:35.126Z,0
2017-03-22T01:26:34.589Z,0
2017-03-22T01:27:35.231Z,0
2017-03-22T01:28:34.959Z,0
2017-03-22T01:29:35.599Z,0
2017-03-22T01:30:35.253Z,0
2017-03-22T01:31:35.024Z,0
2017-03-22T01:32:35.420Z,0
2017-03-22T01:33:35.705Z,0
2017-03-22T01:34:35.415Z,0
2017-03-22T01:35:34.507Z,0
2017-03-22T01:36:36.041Z,0
2017-03-22T01:37:35.498Z,0
2017-03-22T01:38:35.530Z,0
2017-03-22T01:39:35.859Z,0
2017-03-22T01:40:35.895Z,0
2017-03-22T01:41:35.852Z,0
2017-03-22T01:42:35.321Z,0
2017-03-22T01:43:35.666Z,0
2017-03-22T01:44:35.679Z,0
2017-03-22T01:45:35.719Z,0
2017-03-22T01:46:36.300Z,0
2017-03-22T01:47:35.461Z,0
2017-03-22T01:48:35.493Z,0
2017-03-22T01:49:35.830Z,0
2017-03-22T01:50:35.535Z,0
2017-03-22T01:51:36.131Z,0
2017-03-22T01:52:35.944Z,0
2017-03-22T01:53:35.003Z,0
2017-03-22T01:54:35.942Z,0
2017-03-22T01:55:36.299Z,0
2017-03-22T01:56:35.639Z,0
2017-03-22T01:57:36.348Z,0
2017-03-22T01:58:36.069Z,0
2017-03-22T01:59:36.090Z,0
2017-03-22T02:00:36.427Z,0
2017-03-22T02:01:35.775Z,0
2017-03-22T02:02:36.496Z,0
2017-03-22T02:03:36.200Z,0
2017-03-22T02:04:36.232Z,0
2017-03-22T02:05:35.944Z,0
2017-03-22T02:06:35.912Z,0
2017-03-22T02:07:35.993Z,0
2017-03-22T02:08:36.340Z,0
2017-03-22T02:09:36.047Z,0
2017-03-22T02:10:35.766Z,0
2017-03-22T02:11:36.347Z,0
2017-03-22T02:12:36.760Z,0
2017-03-22T02:13:36.163Z,0
2017-03-22T02:14:36.489Z,0
2017-03-22T02:15:36.513Z,0
2017-03-22T02:16:36.799Z,0
2017-03-22T02:17:36.588Z,0
2017-03-22T02:18:36.631Z,0
2017-03-22T02:19:36.320Z,0
2017-03-22T02:20:36.961Z,0
2017-03-22T02:21:36.622Z,0
2017-03-22T02:22:36.403Z,0
2017-03-22T02:23:36.759Z,0
2017-03-22T02:24:36.768Z,0
2017-03-22T02:25:36.477Z,0
2017-03-22T02:26:36.761Z,0
2017-03-22T02:27:36.539Z,0
2017-03-22T02:28:37.192Z,0
2017-03-22T02:29:37.207Z,0
2017-03-22T02:30:36.605Z,0
2017-03-22T02:31:36.894Z,0
2017-03-22T02:32:36.666Z,0
2017-03-22T02:33:37.007Z,0
2017-03-22T02:34:37.027Z,0
2017-03-22T02:35:37.364Z,0
2017-03-22T02:36:37.331Z,0
2017-03-22T02:37:36.794Z,0
2017-03-22T02:38:37.143Z,0
2017-03-22T02:39:37.163Z,0
2017-03-22T02:40:36.559Z,0
2017-03-22T02:41:37.473Z,0
2017-03-22T02:42:37.559Z,0
2017-03-22T02:43:37.278Z,0
2017-03-22T02:44:37.602Z,0
2017-03-22T02:45:36.730Z,0
2017-03-22T02:46:36.961Z,0
2017-03-22T02:47:36.438Z,0
2017-03-22T02:48:36.470Z,0
2017-03-22T02:49:37.122Z,0
2017-03-22T02:50:37.147Z,0
2017-03-22T02:51:37.419Z,0
2017-03-22T02:52:37.509Z,0
2017-03-22T02:53:37.606Z,0
2017-03-22T02:54:37.879Z,0
2017-03-22T02:55:37.903Z,0
2017-03-22T02:56:37.859Z,0
2017-03-22T02:57:38.002Z,0
2017-03-22T02:58:37.977Z,0
2017-03-22T02:59:37.697Z,0
2017-03-22T03:00:37.730Z,0
2017-03-22T03:01:37.435Z,0
2017-03-22T03:02:37.408Z,0
2017-03-22T03:03:37.509Z,0
2017-03-22T03:04:37.522Z,0
2017-03-22T03:05:37.543Z,0
2017-03-22T03:06:38.192Z,0
2017-03-22T03:07:38.159Z,0
2017-03-22T03:08:37.003Z,0
2017-03-22T03:09:37.972Z,0
2017-03-22T03:10:37.686Z,0
2017-03-22T03:11:37.706Z,0
2017-03-22T03:12:38.616Z,0
2017-03-22T03:13:38.381Z,0
2017-03-22T03:14:37.786Z,0
2017-03-22T03:15:38.447Z,0
2017-03-22T03:16:37.524Z,0
2017-03-22T03:17:38.117Z,0
2017-03-22T03:18:38.224Z,0
2017-03-22T03:19:37.921Z,0
2017-03-22T03:20:37.626Z,0
2017-03-22T03:21:38.279Z,0
2017-03-22T03:22:38.562Z,0
2017-03-22T03:23:38.649Z,0
2017-03-22T03:24:38.369Z,0
2017-03-22T03:25:37.764Z,0
2017-03-22T03:26:38.414Z,0
2017-03-22T03:27:39.012Z,0
2017-03-22T03:28:38.795Z,0
2017-03-22T03:29:38.813Z,0
2017-03-22T03:30:38.838Z,0
2017-03-22T03:31:38.279Z,0
2017-03-22T03:32:39.130Z,0
2017-03-22T03:33:38.923Z,0
2017-03-22T03:34:38.628Z,0
2017-03-22T03:35:38.973Z,0
2017-03-22T03:36:38.374Z,0
2017-03-22T03:37:38.340Z,0
2017-03-22T03:38:39.046Z,0
2017-03-22T03:39:38.764Z,0
2017-03-22T03:40:38.792Z,0
2017-03-22T03:41:39.132Z,0
2017-03-22T03:42:39.410Z,0
2017-03-22T03:43:38.582Z,0
2017-03-22T03:44:39.203Z,0
2017-03-22T03:45:39.250Z,0
2017-03-22T03:46:38.951Z,0
2017-03-22T03:52:47.522Z,0
2017-03-22T03:52:57.511Z,0
2017-03-22T03:53:57.215Z,0
2017-03-22T03:54:57.577Z,0
2017-03-22T03:55:57.589Z,0
2017-03-22T03:56:57.313Z,0
2017-03-22T03:57:57.590Z,0
2017-03-22T03:58:57.739Z,0
2017-03-22T03:59:57.388Z,0
2017-03-22T04:00:57.411Z,0
2017-03-22T04:01:57.453Z,0
2017-03-22T04:02:58.070Z,0
2017-03-22T04:03:57.504Z,0
2017-03-22T04:04:57.262Z,0
2017-03-22T04:05:57.238Z,0
2017-03-22T04:06:57.884Z,0
2017-03-22T04:07:58.169Z,0
2017-03-22T04:08:57.962Z,0
2017-03-22T04:09:57.975Z,0
2017-03-22T04:10:57.686Z,0
2017-03-22T04:11:58.020Z,0
2017-03-22T04:12:57.677Z,0
2017-03-22T04:13:57.452Z,0
2017-03-22T04:14:57.783Z,0
2017-03-22T04:15:58.131Z,0
2017-03-22T04:16:57.842Z,0
2017-03-22T04:17:58.454Z,0
2017-03-22T04:18:57.578Z,0
2017-03-22T04:19:57.919Z,0
2017-03-22T04:20:58.261Z,0
2017-03-22T04:21:58.005Z,0
2017-03-22T04:22:57.943Z,0
2017-03-22T04:23:58.036Z,0
2017-03-22T04:24:57.743Z,0
2017-03-22T04:25:57.773Z,0
2017-03-22T04:26:58.408Z,0
2017-03-22T04:27:57.768Z,0
2017-03-22T04:28:58.473Z,0
2017-03-22T04:29:57.878Z,0
2017-03-22T04:30:58.222Z,0
2017-03-22T04:31:58.239Z,0
2017-03-22T04:32:58.512Z,0
2017-03-22T04:33:58.300Z,0
2017-03-22T04:34:58.629Z,0
2017-03-22T04:35:58.368Z,0
2017-03-22T04:36:58.371Z,0
2017-03-22T04:37:58.660Z,0
2017-03-22T04:38:58.733Z,0
2017-03-22T04:39:58.765Z,0
2017-03-22T04:40:58.802Z,0
2017-03-22T04:41:58.182Z,0
2017-03-22T04:42:59.088Z,0
2017-03-22T04:43:58.565Z,0
2017-03-22T04:44:58.897Z,0
2017-03-22T04:45:58.597Z,0
2017-03-22T04:46:58.946Z,0
2017-03-22T04:47:58.907Z,0
2017-03-22T04:48:59.004Z,0
2017-03-22T04:49:59.040Z,0
2017-03-22T04:50:59.062Z,0
2017-03-22T04:51:59.081Z,0
2017-03-22T04:52:59.375Z,0
2017-03-22T04:53:59.145Z,0
2017-03-22T04:54:58.856Z,0
2017-03-22T04:55:59.180Z,0
2017-03-22T04:56:59.227Z,0
2017-03-22T04:57:59.487Z,0
2017-03-22T04:58:58.034Z,0
2017-03-22T04:59:58.987Z,0
2017-03-22T05:00:59.324Z,0
2017-03-22T05:01:59.029Z,0
2017-03-22T05:02:59.309Z,0
2017-03-22T05:03:59.095Z,0
2017-03-22T05:04:59.423Z,0
2017-03-22T05:05:59.464Z,0
2017-03-22T05:06:59.484Z,0
2017-03-22T05:07:59.766Z,0
2017-03-22T05:08:59.223Z,0
2017-03-22T05:09:59.571Z,0
2017-03-22T05:10:59.268Z,0
2017-03-22T05:11:58.984Z,0
2017-03-22T05:12:59.890Z,0
2017-03-22T05:13:59.359Z,0
2017-03-22T05:14:59.692Z,0
2017-03-22T05:15:59.711Z,0
2017-03-22T05:16:59.741Z,0
2017-03-22T05:18:00.022Z,0
2017-03-22T05:18:59.802Z,0
2017-03-22T05:19:59.817Z,0
2017-03-22T05:20:59.843Z,0
2017-03-22T05:21:59.868Z,0
2017-03-22T05:23:00.168Z,0
2017-03-22T05:23:59.926Z,0
2017-03-22T05:24:59.378Z,0
2017-03-22T05:25:59.985Z,0
2017-03-22T05:27:00.008Z,0
2017-03-22T05:28:14.877Z,0
2017-03-22T05:28:59.741Z,0
2017-03-22T05:29:59.782Z,0
2017-03-22T05:31:00.115Z,0
2017-03-22T05:32:00.169Z,0
2017-03-22T05:33:00.170Z,0
2017-03-22T05:34:00.458Z,0
2017-03-22T05:35:00.213Z,0
2017-03-22T05:35:59.930Z,0
2017-03-22T05:37:00.291Z,0
2017-03-22T05:37:59.993Z,0
2017-03-22T05:38:59.966Z,0
2017-03-22T05:40:00.374Z,0
2017-03-22T05:40:59.753Z,0
2017-03-22T05:42:00.088Z,0
2017-03-22T05:43:00.444Z,0
2017-03-22T05:44:00.709Z,0
2017-03-22T05:45:00.183Z,0
2017-03-22T05:46:00.210Z,0
2017-03-22T05:47:00.543Z,0
2017-03-22T05:48:00.564Z,0
2017-03-22T05:49:00.532Z,0
2017-03-22T05:50:00.617Z,0
2017-03-22T05:51:00.649Z,0
2017-03-22T05:52:00.346Z,0
2017-03-22T05:53:00.700Z,0
2017-03-22T05:54:00.673Z,0
2017-03-22T05:55:00.445Z,0
2017-03-22T05:56:00.462Z,0
2017-03-22T05:57:00.490Z,0
2017-03-22T05:58:00.520Z,0
2017-03-22T05:59:00.495Z,0
2017-03-22T06:00:00.881Z,0
2017-03-22T06:01:00.909Z,0
2017-03-22T06:02:00.297Z,0
2017-03-22T06:03:00.034Z,0
2017-03-22T06:04:01.256Z,0
2017-03-22T06:05:00.721Z,0
2017-03-22T06:06:01.041Z,0
2017-03-22T06:07:00.762Z,0
2017-03-22T06:08:00.787Z,0
2017-03-22T06:09:01.075Z,0
2017-03-22T06:10:01.160Z,0
2017-03-22T06:11:01.196Z,0
2017-03-22T06:12:00.890Z,0
2017-03-22T06:13:01.224Z,0
2017-03-22T06:14:01.220Z,0
2017-03-22T06:15:00.679Z,0
2017-03-22T06:16:00.680Z,0
2017-03-22T06:17:01.025Z,0
2017-03-22T06:18:01.086Z,0
2017-03-22T06:19:01.658Z,0
2017-03-22T06:20:01.107Z,0
2017-03-22T06:21:01.447Z,0
2017-03-22T06:22:01.468Z,0
2017-03-22T06:23:00.874Z,0
2017-03-22T06:24:01.783Z,0
2017-03-22T06:25:01.243Z,0
2017-03-22T06:26:01.263Z,0
2017-03-22T06:27:00.996Z,0
2017-03-22T06:28:01.641Z,0
2017-03-22T06:29:00.982Z,0
2017-03-22T06:30:01.688Z,0
2017-03-22T06:31:01.708Z,0
2017-03-22T06:32:01.456Z,0
2017-03-22T06:33:01.461Z,0
2017-03-22T06:34:01.735Z,0
2017-03-22T06:35:01.509Z,0
2017-03-22T06:36:01.532Z,0
2017-03-22T06:37:01.568Z,0
2017-03-22T06:38:00.978Z,0
2017-03-22T06:39:01.866Z,0
2017-03-22T06:40:01.959Z,0
2017-03-22T06:41:01.999Z,0
2017-03-22T06:42:01.697Z,0
2017-03-22T06:43:01.104Z,0
2017-03-22T06:44:02.314Z,0
2017-03-22T06:45:02.099Z,0
2017-03-22T06:46:01.166Z,0
2017-03-22T06:47:01.836Z,0
2017-03-22T06:48:01.858Z,0
2017-03-22T06:49:01.832Z,5
2017-03-22T06:50:01.907Z,5
2017-03-22T06:51:01.939Z,5
2017-03-22T06:52:02.273Z,5
2017-03-22T06:53:02.318Z,5
2017-03-22T06:54:02.272Z,5
2017-03-22T06:55:02.047Z,5
2017-03-22T06:56:01.751Z,5
2017-03-22T06:57:01.799Z,5
2017-03-22T06:58:02.140Z,5
2017-03-22T06:59:02.408Z,5
2017-03-22T07:00:02.496Z,5
2017-03-22T07:01:02.203Z,5
2017-03-22T07:02:02.537Z,5
2017-03-22T07:03:02.316Z,5
2017-03-22T07:04:02.852Z,5
2017-03-22T07:05:02.317Z,5
2017-03-22T07:06:02.658Z,5
2017-03-22T07:07:02.679Z,5
2017-03-22T07:08:02.718Z,5
2017-03-22T07:09:02.735Z,5
2017-03-22T07:10:03.050Z,5
2017-03-22T07:11:02.777Z,5
2017-03-22T07:12:02.825Z,5
2017-03-22T07:13:02.881Z,5
2017-03-22T07:14:02.553Z,10
2017-03-22T07:15:02.539Z,10
2017-03-22T07:16:02.921Z,10
2017-03-22T07:17:02.654Z,10
2017-03-22T07:18:02.975Z,10
2017-03-22T07:19:03.025Z,10
2017-03-22T07:20:03.279Z,10
2017-03-22T07:21:02.748Z,10
2017-03-22T07:22:03.302Z,10
2017-03-22T07:23:02.803Z,10
2017-03-22T07:24:03.151Z,10
2017-03-22T07:25:02.803Z,10
2017-03-22T07:26:02.905Z,10
2017-03-22T07:27:03.218Z,10
2017-03-22T07:28:02.946Z,10
2017-03-22T07:29:02.964Z,10
2017-03-22T07:30:03.568Z,10
2017-03-22T07:31:03.321Z,10
2017-03-22T07:32:03.033Z,10
2017-03-22T07:33:03.437Z,10
2017-03-22T07:34:03.100Z,15
2017-03-22T07:35:03.682Z,15
2017-03-22T07:36:03.153Z,10
2017-03-22T07:37:03.173Z,15
2017-03-22T07:38:03.522Z,15
2017-03-22T07:39:03.242Z,15
2017-03-22T07:40:03.828Z,15
2017-03-22T07:41:03.280Z,15
2017-03-22T07:42:03.311Z,15
2017-03-22T07:43:03.670Z,15
2017-03-22T07:44:03.375Z,20
2017-03-22T07:45:03.643Z,20
2017-03-22T07:46:03.420Z,15
2017-03-22T07:47:03.464Z,20
2017-03-22T07:48:03.482Z,20
2017-03-22T07:49:03.826Z,20
2017-03-22T07:50:03.788Z,20
2017-03-22T07:51:03.554Z,20
2017-03-22T07:52:03.581Z,20
2017-03-22T07:53:03.926Z,20
2017-03-22T07:54:03.334Z,25
2017-03-22T07:55:03.919Z,20
2017-03-22T07:56:03.692Z,20
2017-03-22T07:57:03.720Z,20
2017-03-22T07:58:04.133Z,20
2017-03-22T07:59:04.112Z,25
2017-03-22T08:00:04.071Z,25
2017-03-22T08:01:04.157Z,15
2017-03-22T08:02:04.169Z,15
2017-03-22T08:03:03.881Z,20
2017-03-22T08:04:04.220Z,25
2017-03-22T08:05:04.241Z,25
2017-03-22T08:06:03.966Z,25
2017-03-22T08:07:03.991Z,20
2017-03-22T08:08:04.032Z,20
2017-03-22T08:09:04.046Z,20
2017-03-22T08:10:04.640Z,20
2017-03-22T08:11:04.411Z,20
2017-03-22T08:12:04.451Z,20
2017-03-22T08:13:04.183Z,15
2017-03-22T08:14:04.194Z,15
2017-03-22T08:15:04.462Z,15
2017-03-22T08:16:04.234Z,20
2017-03-22T08:17:04.576Z,20
2017-03-22T08:18:04.004Z,10
2017-03-22T08:19:04.322Z,15
2017-03-22T08:20:04.285Z,20
2017-03-22T08:21:04.377Z,20
2017-03-22T08:22:04.396Z,20
2017-03-22T08:23:04.746Z,25
2017-03-22T08:24:04.812Z,25
2017-03-22T08:25:05.045Z,25
2017-03-22T08:26:04.522Z,25
2017-03-22T08:27:04.851Z,25
2017-03-22T08:28:04.569Z,25
2017-03-22T08:29:04.281Z,25
2017-03-22T08:30:05.188Z,25
2017-03-22T08:31:04.650Z,25
2017-03-22T08:32:04.994Z,25
2017-03-22T08:33:05.023Z,25
2017-03-22T08:34:04.731Z,25
2017-03-22T08:35:05.001Z,25
2017-03-22T08:36:04.782Z,25
2017-03-22T08:37:05.122Z,25
2017-03-22T08:38:04.523Z,25
2017-03-22T08:39:04.857Z,25
2017-03-22T08:40:05.148Z,25
2017-03-22T08:41:04.952Z,25
2017-03-22T08:42:04.630Z,25
2017-03-22T08:43:04.982Z,25
2017-03-22T08:44:05.312Z,30
2017-03-22T08:45:05.285Z,30
2017-03-22T08:46:05.372Z,20
2017-03-22T08:47:05.394Z,20
2017-03-22T08:48:05.431Z,15
2017-03-22T08:49:05.466Z,20
2017-03-22T08:50:05.434Z,15
2017-03-22T08:51:05.517Z,10
2017-03-22T08:52:05.525Z,10
2017-03-22T08:53:05.262Z,10
2017-03-22T08:54:05.279Z,10
2017-03-22T08:55:05.545Z,10
2017-03-22T08:56:05.640Z,10
2017-03-22T08:57:05.045Z,10
2017-03-22T08:58:05.693Z,10
2017-03-22T08:59:05.740Z,10
2017-03-22T09:00:05.694Z,15
2017-03-22T09:01:05.770Z,15
2017-03-22T09:02:05.181Z,15
2017-03-22T09:03:05.205Z,20
2017-03-22T09:04:05.854Z,15
2017-03-22T09:05:05.854Z,25
2017-03-22T09:06:05.628Z,30
2017-03-22T09:07:05.308Z,30
2017-03-22T09:08:05.662Z,30
2017-03-22T09:09:05.669Z,30
2017-03-22T09:10:05.698Z,30
2017-03-22T09:11:05.995Z,25
2017-03-22T09:12:05.768Z,20
2017-03-22T09:13:05.801Z,20
2017-03-22T09:14:05.810Z,25
2017-03-22T09:15:06.159Z,25
2017-03-22T09:16:05.812Z,30
2017-03-22T09:17:05.910Z,25
2017-03-22T09:18:05.913Z,25
2017-03-22T09:19:06.266Z,15
2017-03-22T09:20:05.979Z,15
2017-03-22T09:21:06.256Z,15
2017-03-22T09:22:05.730Z,15
2017-03-22T09:23:06.377Z,15
2017-03-22T09:24:06.073Z,20
2017-03-22T09:25:06.118Z,20
2017-03-22T09:26:06.399Z,20
2017-03-22T09:27:05.867Z,25
2017-03-22T09:28:06.504Z,25
2017-03-22T09:29:05.907Z,25
2017-03-22T09:30:06.255Z,30
2017-03-22T09:31:06.846Z,30
2017-03-22T09:32:06.628Z,25
2017-03-22T09:33:06.652Z,25
2017-03-22T09:34:06.057Z,25
2017-03-22T09:35:06.398Z,25
2017-03-22T09:36:06.975Z,30
2017-03-22T09:37:06.484Z,25
2017-03-22T09:38:06.480Z,15
2017-03-22T09:39:06.193Z,15
2017-03-22T09:40:06.215Z,15
2017-03-22T09:41:07.109Z,15
2017-03-22T09:42:06.900Z,15
2017-03-22T09:43:06.303Z,20
2017-03-22T09:44:06.952Z,15
2017-03-22T09:45:06.667Z,15
2017-03-22T09:46:07.264Z,15
2017-03-22T09:47:07.039Z,15
2017-03-22T09:48:06.763Z,15
2017-03-22T09:49:06.784Z,15
2017-03-22T09:50:06.794Z,15
2017-03-22T09:51:06.455Z,15
2017-03-22T09:52:07.162Z,20
2017-03-22T09:53:07.202Z,20
2017-03-22T09:54:06.905Z,20
2017-03-22T09:55:06.925Z,20
2017-03-22T09:56:07.206Z,20
2017-03-22T09:57:06.676Z,20
2017-03-22T09:58:07.329Z,20
2017-03-22T09:59:07.369Z,20
2017-03-22T10:00:07.389Z,20
2017-03-22T10:01:07.665Z,15
2017-03-22T10:02:07.124Z,15
2017-03-22T10:03:06.843Z,15
2017-03-22T10:04:07.175Z,20
2017-03-22T10:05:06.892Z,20
2017-03-22T10:06:07.173Z,20
2017-03-22T10:07:07.264Z,15
2017-03-22T10:08:06.970Z,15
2017-03-22T10:09:07.632Z,15
2017-03-22T10:10:07.336Z,15
2017-03-22T10:11:07.929Z,15
2017-03-22T10:12:07.389Z,15
2017-03-22T10:13:07.734Z,15
2017-03-22T10:14:07.135Z,20
2017-03-22T10:15:07.776Z,15
2017-03-22T10:16:08.072Z,15
2017-03-22T10:17:07.841Z,15
2017-03-22T10:18:07.894Z,20
2017-03-22T10:19:07.579Z,20
2017-03-22T10:20:07.915Z,15
2017-03-22T10:21:07.577Z,15
2017-03-22T10:22:07.666Z,15
2017-03-22T10:23:08.010Z,15
2017-03-22T10:24:07.721Z,15
2017-03-22T10:25:07.740Z,15
2017-03-22T10:26:08.036Z,20
2017-03-22T10:27:08.101Z,15
2017-03-22T10:28:07.834Z,15
2017-03-22T10:29:08.191Z,20
2017-03-22T10:30:08.194Z,20
2017-03-22T10:31:08.151Z,20
2017-03-22T10:32:08.257Z,20
2017-03-22T10:33:07.653Z,20
2017-03-22T10:34:07.674Z,15
2017-03-22T10:35:08.327Z,20
2017-03-22T10:36:08.303Z,15
2017-03-22T10:37:07.761Z,15
2017-03-22T10:38:08.409Z,20
2017-03-22T10:39:07.813Z,20
2017-03-22T10:40:08.146Z,15
2017-03-22T10:41:08.743Z,20
2017-03-22T10:42:07.589Z,20
2017-03-22T10:43:08.540Z,25
2017-03-22T10:44:08.266Z,25
2017-03-22T10:45:07.974Z,25
2017-03-22T10:46:08.258Z,20
2017-03-22T10:47:08.343Z,25
2017-03-22T10:48:08.684Z,25
2017-03-22T10:49:08.719Z,25
2017-03-22T10:50:08.421Z,25
2017-03-22T10:51:08.389Z,25
2017-03-22T10:52:08.792Z,25
2017-03-22T10:53:08.812Z,25
2017-03-22T10:54:08.843Z,25
2017-03-22T10:55:08.878Z,20
2017-03-22T10:56:08.515Z,20
2017-03-22T10:57:08.923Z,20
2017-03-22T10:58:08.959Z,20
2017-03-22T10:59:08.674Z,20
2017-03-22T11:00:08.706Z,25
2017-03-22T11:01:09.282Z,20
2017-03-22T11:02:08.751Z,20
2017-03-22T11:03:09.100Z,20
2017-03-22T11:04:09.124Z,20
2017-03-22T11:05:08.831Z,20
2017-03-22T11:06:09.417Z,20
2017-03-22T11:07:09.192Z,20
2017-03-22T11:08:08.928Z,20
2017-03-22T11:09:08.948Z,20
2017-03-22T11:10:08.965Z,20
2017-03-22T11:11:09.565Z,20
2017-03-22T11:12:09.019Z,20
2017-03-22T11:13:09.058Z,20
2017-03-22T11:14:09.076Z,25
2017-03-22T11:15:09.417Z,25
2017-03-22T11:16:08.848Z,20
2017-03-22T11:17:09.734Z,20
2017-03-22T11:18:09.493Z,20
2017-03-22T11:19:09.204Z,20
2017-03-22T11:20:09.240Z,15
2017-03-22T11:21:09.257Z,20
2017-03-22T11:22:09.876Z,20
2017-03-22T11:23:09.313Z,20
2017-03-22T11:24:09.346Z,25
2017-03-22T11:25:09.371Z,20
2017-03-22T11:26:09.399Z,20
2017-03-22T11:27:09.690Z,25
2017-03-22T11:28:09.459Z,25
2017-03-22T11:29:09.167Z,25
2017-03-22T11:30:09.818Z,25
2017-03-22T11:31:09.843Z,25
2017-03-22T11:32:09.817Z,20
2017-03-22T11:33:09.583Z,20
2017-03-22T11:34:09.655Z,20
2017-03-22T11:35:09.643Z,20
2017-03-22T11:36:09.979Z,20
2017-03-22T11:37:10.260Z,15
2017-03-22T11:38:09.100Z,20
2017-03-22T11:39:09.749Z,20
2017-03-22T11:40:09.786Z,20
2017-03-22T11:41:09.173Z,25
2017-03-22T11:42:10.132Z,25
2017-03-22T11:43:10.164Z,25
2017-03-22T11:44:10.198Z,25
2017-03-22T11:45:09.922Z,25
2017-03-22T11:46:09.635Z,25
2017-03-22T11:47:10.536Z,30
2017-03-22T11:48:09.705Z,25
2017-03-22T11:49:10.024Z,20
2017-03-22T11:50:10.378Z,20
2017-03-22T11:51:10.386Z,20
2017-03-22T11:52:10.676Z,20
2017-03-22T11:53:10.438Z,15
2017-03-22T11:54:10.166Z,15
2017-03-22T11:55:10.490Z,15
2017-03-22T11:56:10.526Z,15
2017-03-22T11:57:10.482Z,15
2017-03-22T11:58:10.568Z,15
2017-03-22T11:59:09.973Z,15
2017-03-22T12:00:10.317Z,15
2017-03-22T12:01:10.043Z,15
2017-03-22T12:02:10.623Z,15
2017-03-22T12:03:10.696Z,15
2017-03-22T12:04:10.425Z,15
2017-03-22T12:05:10.752Z,15
2017-03-22T12:06:10.177Z,15
2017-03-22T12:07:10.435Z,15
2017-03-22T12:08:10.535Z,20
2017-03-22T12:09:10.872Z,20
2017-03-22T12:10:10.909Z,25
2017-03-22T12:11:10.925Z,25
2017-03-22T12:12:11.245Z,25
2017-03-22T12:13:10.663Z,20
2017-03-22T12:14:10.380Z,20
2017-03-22T12:15:11.080Z,15
2017-03-22T12:16:10.753Z,15
2017-03-22T12:17:10.715Z,15
2017-03-22T12:18:10.495Z,20
2017-03-22T12:19:10.518Z,20
2017-03-22T12:20:10.542Z,25
2017-03-22T12:21:11.244Z,25
2017-03-22T12:22:11.162Z,25
2017-03-22T12:23:10.947Z,25
2017-03-22T12:24:10.961Z,25
2017-03-22T12:25:10.675Z,25
2017-03-22T12:26:10.704Z,20
2017-03-22T12:27:10.989Z,20
2017-03-22T12:28:11.378Z,25
2017-03-22T12:29:11.419Z,20
2017-03-22T12:30:11.145Z,20
2017-03-22T12:31:10.860Z,20
2017-03-22T12:32:11.431Z,25
2017-03-22T12:33:11.201Z,25
2017-03-22T12:34:11.564Z,25
2017-03-22T12:35:10.948Z,25
2017-03-22T12:36:11.290Z,25
2017-03-22T12:37:11.892Z,25
2017-03-22T12:38:11.650Z,30
2017-03-22T12:39:11.059Z,30
2017-03-22T12:40:11.398Z,35
2017-03-22T12:41:11.439Z,35
2017-03-22T12:42:12.020Z,35
2017-03-22T12:43:11.480Z,35
2017-03-22T12:44:11.506Z,35
2017-03-22T12:45:11.224Z,35
2017-03-22T12:46:11.565Z,35
2017-03-22T12:47:12.152Z,30
2017-03-22T12:48:11.301Z,30
2017-03-22T12:49:11.638Z,30
2017-03-22T12:50:11.363Z,35
2017-03-22T12:51:11.691Z,35
2017-03-22T12:52:11.097Z,35
2017-03-22T12:53:12.315Z,40
2017-03-22T12:54:11.460Z,40
2017-03-22T12:55:12.130Z,45
2017-03-22T12:56:12.147Z,45
2017-03-22T12:57:11.859Z,45
2017-03-22T12:58:12.471Z,45
2017-03-22T12:59:11.601Z,45
2017-03-22T13:00:12.270Z,45
2017-03-22T13:01:11.967Z,45
2017-03-22T13:02:11.683Z,45
2017-03-22T13:03:12.576Z,35
2017-03-22T13:04:11.744Z,25
2017-03-22T13:05:12.077Z,25
2017-03-22T13:06:12.115Z,25
2017-03-22T13:07:12.450Z,30
2017-03-22T13:08:12.724Z,35
2017-03-22T13:09:12.181Z,35
2017-03-22T13:10:11.277Z,30
2017-03-22T13:11:12.541Z,25
2017-03-22T13:12:12.277Z,25
2017-03-22T13:13:12.861Z,20
2017-03-22T13:14:12.317Z,20
2017-03-22T13:15:12.032Z,20
2017-03-22T13:16:12.374Z,20
2017-03-22T13:17:12.095Z,20
2017-03-22T13:18:12.687Z,25
2017-03-22T13:19:11.826Z,25
2017-03-22T13:20:11.856Z,25
2017-03-22T13:21:12.826Z,25
2017-03-22T13:22:12.534Z,30
2017-03-22T13:23:13.120Z,30
2017-03-22T13:24:12.280Z,30
2017-03-22T13:25:12.626Z,30
2017-03-22T13:26:12.333Z,35
2017-03-22T13:27:12.368Z,35
2017-03-22T13:28:12.955Z,35
2017-03-22T13:29:12.096Z,35
2017-03-22T13:30:12.756Z,35
2017-03-22T13:31:13.089Z,35
2017-03-22T13:32:12.186Z,35
2017-03-22T13:33:13.403Z,35
2017-03-22T13:34:13.188Z,35
2017-03-22T13:35:12.260Z,35
2017-03-22T13:36:12.965Z,35
2017-03-22T13:37:13.261Z,30
2017-03-22T13:38:13.226Z,35
2017-03-22T13:39:12.688Z,35
2017-03-22T13:40:12.716Z,40
2017-03-22T13:41:13.064Z,40
2017-03-22T13:42:12.769Z,40
2017-03-22T13:43:13.362Z,40
2017-03-22T13:44:12.829Z,35
2017-03-22T13:45:13.171Z,35
2017-03-22T13:46:12.882Z,30
2017-03-22T13:47:13.536Z,30
2017-03-22T13:48:13.506Z,30
2017-03-22T13:49:13.630Z,30
2017-03-22T13:50:12.990Z,25
2017-03-22T13:51:13.332Z,20
2017-03-22T13:52:13.669Z,15
2017-03-22T13:53:13.317Z,15
2017-03-22T13:54:13.094Z,15
2017-03-22T13:55:13.439Z,20
2017-03-22T13:56:13.772Z,15
2017-03-22T13:57:13.181Z,15
2017-03-22T13:58:13.769Z,15
2017-03-22T13:59:13.866Z,10
2017-03-22T14:00:13.575Z,15
2017-03-22T14:01:12.982Z,15
2017-03-22T14:02:13.632Z,20
2017-03-22T14:03:13.949Z,25
2017-03-22T14:04:14.009Z,20
2017-03-22T14:05:13.706Z,15
2017-03-22T14:06:13.735Z,15
2017-03-22T14:07:14.083Z,15
2017-03-22T14:08:14.036Z,20
2017-03-22T14:09:13.512Z,20
2017-03-22T14:10:13.534Z,25
2017-03-22T14:11:13.871Z,25
2017-03-22T14:12:14.262Z,25
2017-03-22T14:13:13.860Z,25
2017-03-22T14:14:13.952Z,25
2017-03-22T14:15:13.981Z,25
2017-03-22T14:16:13.683Z,25
2017-03-22T14:17:14.064Z,25
2017-03-22T14:18:14.624Z,25
2017-03-22T14:19:14.092Z,25
2017-03-22T14:20:14.438Z,25
2017-03-22T14:21:13.821Z,25
2017-03-22T14:22:14.166Z,25
2017-03-22T14:23:14.772Z,25
2017-03-22T14:24:14.221Z,25
2017-03-22T14:25:14.249Z,20
2017-03-22T14:26:14.282Z,20
2017-03-22T14:27:14.322Z,25
2017-03-22T14:28:14.582Z,25
2017-03-22T14:29:14.678Z,20
2017-03-22T14:30:14.393Z,20
2017-03-22T14:31:14.758Z,20
2017-03-22T14:32:14.443Z,20
2017-03-22T14:33:14.730Z,15
2017-03-22T14:34:14.495Z,15
2017-03-22T14:35:14.536Z,20